createdAt,value
2018-10-19T00:00:09.436Z,49.20
2018-10-19T00:03:12.551Z,51.27
2018-10-19T00:06:15.618Z,44.90
2018-10-19T00:09:18.711Z,46.43
2018-10-19T00:12:21.826Z,48.27
2018-10-19T00:15:24.936Z,47.43
2018-10-19T00:18:28.029Z,45.17
2018-10-19T00:21:31.237Z,43.90
2018-10-19T00:24:34.390Z,41.67
2018-10-19T00:27:37.466Z,43.60
2018-10-19T00:30:40.650Z,45.67
2018-10-19T00:33:43.730Z,43.53
2018-10-19T00:36:46.901Z,49.47
2018-10-19T00:39:49.918Z,44.37
2018-10-19T00:42:52.997Z,40.43
2018-10-19T00:45:56.093Z,40.77
2018-10-19T00:48:59.170Z,41.80
2018-10-19T00:52:02.260Z,42.10
2018-10-19T00:55:05.792Z,40.53
2018-10-19T00:58:08.918Z,38.33
2018-10-19T01:01:11.985Z,32.73
2018-10-19T01:04:15.154Z,32.23
2018-10-19T01:07:18.221Z,31.57
2018-10-19T01:10:23.714Z,30.60
2018-10-19T01:13:26.791Z,28.47
2018-10-19T01:16:29.872Z,27.63
2018-10-19T01:19:32.982Z,27.73
2018-10-19T01:22:36.065Z,23.80
2018-10-19T01:25:42.146Z,29.07
2018-10-19T01:28:45.292Z,26.23
2018-10-19T01:31:48.389Z,21.33
2018-10-19T01:34:51.462Z,20.33
2018-10-19T01:37:54.591Z,19.80
2018-10-19T01:40:57.673Z,17.57
2018-10-19T01:44:00.769Z,15.10
2018-10-19T01:47:03.897Z,16.20
2018-10-19T01:50:07.599Z,19.10
2018-10-19T01:53:10.833Z,15.03
2018-10-19T01:56:13.787Z,12.87
2018-10-19T01:59:16.890Z,12.57
2018-10-19T02:02:19.998Z,11.73
2018-10-19T02:05:23.073Z,15.37
2018-10-19T02:08:26.164Z,13.23
2018-10-19T02:11:29.533Z,12.13
2018-10-19T02:14:32.623Z,12.37
2018-10-19T02:17:35.698Z,12.23
2018-10-19T02:20:38.770Z,13.27
2018-10-19T02:23:41.849Z,10.80
2018-10-19T02:26:44.937Z,10.93
2018-10-19T02:29:48.015Z,9.87
2018-10-19T02:32:51.106Z,9.93
2018-10-19T02:35:54.153Z,10.97
2018-10-19T02:38:57.548Z,9.67
2018-10-19T02:42:00.587Z,9.07
2018-10-19T02:45:03.784Z,7.63
2018-10-19T02:48:06.862Z,7.67
2018-10-19T02:51:10.019Z,9.53
2018-10-19T02:54:13.009Z,7.97
2018-10-19T02:57:16.188Z,9.80
2018-10-19T03:00:19.202Z,7.70
2018-10-19T03:03:22.363Z,6.13
2018-10-19T03:06:25.465Z,6.20
2018-10-19T03:09:28.545Z,8.10
2018-10-19T03:12:31.630Z,5.40
2018-10-19T03:15:34.722Z,6.97
2018-10-19T03:18:37.855Z,7.83
2018-10-19T03:21:41.015Z,6.57
2018-10-19T03:24:44.118Z,8.20
2018-10-19T03:27:47.202Z,7.10
2018-10-19T03:30:50.352Z,6.33
2018-10-19T03:33:53.370Z,5.83
2018-10-19T03:36:56.446Z,7.90
2018-10-19T03:39:59.556Z,8.50
2018-10-19T03:43:02.986Z,6.77
2018-10-19T03:46:06.444Z,9.20
2018-10-19T03:49:09.608Z,7.27
2018-10-19T03:52:12.645Z,6.77
2018-10-19T03:55:15.731Z,6.50
2018-10-19T03:58:18.822Z,6.13
2018-10-19T04:01:21.935Z,7.63
2018-10-19T04:04:25.034Z,5.60
2018-10-19T04:07:28.128Z,5.67
2018-10-19T04:10:31.193Z,5.57
2018-10-19T04:13:34.277Z,6.03
2018-10-19T04:16:37.402Z,7.23
2018-10-19T04:19:40.478Z,11.43
2018-10-19T04:22:43.666Z,7.17
2018-10-19T04:25:46.766Z,9.80
2018-10-19T04:28:49.848Z,6.50
2018-10-19T04:31:52.931Z,6.27
2018-10-19T04:34:56.066Z,6.40
2018-10-19T04:37:59.074Z,5.27
2018-10-19T04:41:02.178Z,5.73
2018-10-19T04:44:05.286Z,5.37
2018-10-19T04:47:08.424Z,7.00
2018-10-19T04:50:11.524Z,6.90
2018-10-19T04:53:14.784Z,6.73
2018-10-19T04:56:17.738Z,7.67
2018-10-19T04:59:20.831Z,8.53
2018-10-19T05:02:23.988Z,7.47
2018-10-19T05:05:27.196Z,7.70
2018-10-19T05:08:30.159Z,5.37
2018-10-19T05:11:33.273Z,5.53
2018-10-19T05:14:36.329Z,4.20
2018-10-19T05:17:39.463Z,5.33
2018-10-19T05:20:42.553Z,6.50
2018-10-19T05:23:45.642Z,7.27
2018-10-19T05:26:48.743Z,5.60
2018-10-19T05:29:51.806Z,4.70
2018-10-19T05:32:54.972Z,10.03
2018-10-19T05:35:57.975Z,8.60
2018-10-19T05:39:01.033Z,12.60
2018-10-19T05:42:04.123Z,6.83
2018-10-19T05:45:09.750Z,6.63
2018-10-19T05:48:12.879Z,7.63
2018-10-19T05:51:15.976Z,12.47
2018-10-19T05:54:19.097Z,8.40
2018-10-19T05:57:22.238Z,11.50
2018-10-19T06:00:25.329Z,6.77
2018-10-19T06:03:28.416Z,8.20
2018-10-19T06:06:31.485Z,7.57
2018-10-19T06:09:34.568Z,11.20
2018-10-19T06:12:37.666Z,9.00
2018-10-19T06:15:48.474Z,9.03
2018-10-19T06:18:51.558Z,9.23
2018-10-19T06:21:54.724Z,7.77
2018-10-19T06:24:57.773Z,9.47
2018-10-19T06:28:00.905Z,6.80
2018-10-19T06:31:03.986Z,9.90
2018-10-19T06:34:07.077Z,8.87
2018-10-19T06:37:10.154Z,11.13
2018-10-19T06:40:13.247Z,9.93
2018-10-19T06:43:16.321Z,7.17
2018-10-19T06:46:19.389Z,9.07
2018-10-19T06:49:22.475Z,11.10
2018-10-19T06:52:25.557Z,10.13
2018-10-19T06:55:28.634Z,11.53
2018-10-19T06:58:31.781Z,10.60
2018-10-19T07:01:34.857Z,8.63
2018-10-19T07:04:37.972Z,12.07
2018-10-19T07:07:41.028Z,9.00
2018-10-19T07:10:44.134Z,10.10
2018-10-19T07:13:47.238Z,7.83
2018-10-19T07:16:50.306Z,13.67
2018-10-19T07:19:53.961Z,9.10
2018-10-19T07:22:57.021Z,10.63
2018-10-19T07:26:00.176Z,10.27
2018-10-19T07:32:31.289Z,9.93
2018-10-19T07:35:34.366Z,9.53
2018-10-19T07:38:37.550Z,11.37
2018-10-19T07:41:40.609Z,10.10
2018-10-19T07:44:43.694Z,8.70
2018-10-19T07:47:52.995Z,10.27
2018-10-19T07:50:56.009Z,7.37
2018-10-19T07:53:59.090Z,9.17
2018-10-19T07:57:02.183Z,9.37
2018-10-19T08:00:06.222Z,13.00
2018-10-19T08:03:09.265Z,10.53
2018-10-19T08:06:12.392Z,10.87
2018-10-19T08:09:15.437Z,14.00
2018-10-19T08:12:18.558Z,10.80
2018-10-19T08:15:21.727Z,8.97
2018-10-19T08:18:24.798Z,14.43
2018-10-19T08:21:27.881Z,14.43
2018-10-19T08:24:30.946Z,16.10
2018-10-19T08:27:34.117Z,12.23
2018-10-19T08:30:37.211Z,12.93
2018-10-19T08:33:40.409Z,11.80
2018-10-19T08:36:43.513Z,9.73
2018-10-19T08:39:46.642Z,12.83
2018-10-19T08:42:49.750Z,10.87
2018-10-19T08:45:52.806Z,15.00
2018-10-19T08:48:55.925Z,12.53
2018-10-19T08:51:59.115Z,15.03
2018-10-19T08:55:02.280Z,15.03
2018-10-19T08:58:05.436Z,11.60
2018-10-19T09:01:08.515Z,14.43
2018-10-19T09:04:11.656Z,13.30
2018-10-19T09:07:14.713Z,15.30
2018-10-19T09:10:17.802Z,10.80
2018-10-19T09:13:28.784Z,13.57
2018-10-19T09:16:46.029Z,12.83
2018-10-19T09:19:51.578Z,12.83
2018-10-19T09:22:56.132Z,9.33
2018-10-19T09:26:02.763Z,11.97
2018-10-19T09:29:18.367Z,10.03
2018-10-19T09:32:39.129Z,11.73
2018-10-19T09:35:49.472Z,10.43
2018-10-19T09:38:52.595Z,11.07
2018-10-19T09:42:08.372Z,11.33
2018-10-19T09:45:16.390Z,13.43
2018-10-19T09:48:21.413Z,12.23
2018-10-19T09:51:25.610Z,15.50
2018-10-19T09:54:32.394Z,10.97
2018-10-19T09:57:39.422Z,8.43
2018-10-19T10:00:56.560Z,12.57
2018-10-19T10:04:10.623Z,8.60
2018-10-19T10:07:38.154Z,9.50
2018-10-19T10:10:42.353Z,10.57
2018-10-19T10:14:09.925Z,11.93
2018-10-19T10:17:15.112Z,11.00
2018-10-19T10:20:24.842Z,11.87
2018-10-19T10:23:34.641Z,9.43
2018-10-19T10:26:45.382Z,9.03
2018-10-19T10:29:51.593Z,13.63
2018-10-19T10:32:54.769Z,10.60
2018-10-19T10:39:35.529Z,10.37
2018-10-19T10:42:43.014Z,7.20
2018-10-19T10:45:48.121Z,6.70
2018-10-19T10:48:51.249Z,5.50
2018-10-19T10:51:57.735Z,8.20
2018-10-19T10:55:00.878Z,6.97
2018-10-19T10:58:08.690Z,7.17
2018-10-19T11:01:16.091Z,10.67
2018-10-19T11:04:27.221Z,11.43
2018-10-19T11:07:38.450Z,8.43
2018-10-19T11:10:45.170Z,8.87
2018-10-19T11:13:55.558Z,12.83
2018-10-19T11:17:02.455Z,8.03
2018-10-19T11:20:24.547Z,10.47
2018-10-19T11:23:35.996Z,8.43
2018-10-19T11:26:40.105Z,10.00
2018-10-19T11:29:47.016Z,9.23
2018-10-19T11:32:50.206Z,11.63
2018-10-19T11:35:53.382Z,9.27
2018-10-19T11:38:59.862Z,8.93
2018-10-19T11:42:03.188Z,9.67
2018-10-19T11:45:07.506Z,9.70
2018-10-19T11:48:12.634Z,9.07
2018-10-19T11:51:15.783Z,8.80
2018-10-19T11:54:28.890Z,6.60
2018-10-19T11:57:49.369Z,9.93
2018-10-19T12:00:58.503Z,6.93
2018-10-19T12:04:05.537Z,10.10
2018-10-19T12:07:12.634Z,6.67
2018-10-19T12:10:25.964Z,5.30
2018-10-19T12:13:39.369Z,4.60
2018-10-19T12:16:46.040Z,5.20
2018-10-19T12:20:12.229Z,5.27
2018-10-19T12:23:26.523Z,5.60
2018-10-19T12:26:46.073Z,7.67
2018-10-19T12:29:55.073Z,5.17
2018-10-19T12:32:59.227Z,7.10
2018-10-19T12:36:05.625Z,6.77
2018-10-19T12:39:09.617Z,4.57
2018-10-19T12:42:27.193Z,4.77
2018-10-19T12:46:45.203Z,5.67
2018-10-19T12:49:52.823Z,6.87
2018-10-19T12:52:56.962Z,5.40
2018-10-19T12:56:00.134Z,5.90
2018-10-19T12:59:04.575Z,8.40
2018-10-19T13:02:11.777Z,5.50
2018-10-19T13:05:18.958Z,4.27
2018-10-19T13:08:22.129Z,5.87
2018-10-19T13:11:32.913Z,5.27
2018-10-19T13:14:48.240Z,6.73
2018-10-19T13:17:56.919Z,5.87
2018-10-19T13:21:05.786Z,5.43
2018-10-19T13:24:08.990Z,3.67
2018-10-19T13:27:13.118Z,3.33
2018-10-19T13:30:22.835Z,4.00
2018-10-19T13:36:58.768Z,7.17
2018-10-19T13:40:01.868Z,5.90
2018-10-19T13:43:10.501Z,5.77
2018-10-19T13:46:23.281Z,10.50
2018-10-19T13:49:38.910Z,10.00
2018-10-19T13:52:44.038Z,5.07
2018-10-19T13:56:04.357Z,4.80
2018-10-19T13:59:19.947Z,3.60
2018-10-19T14:02:27.441Z,5.97
2018-10-19T14:05:30.684Z,5.07
2018-10-19T14:08:33.805Z,4.97
2018-10-19T14:11:38.458Z,4.87
2018-10-19T14:14:43.798Z,5.60
2018-10-19T14:17:46.910Z,7.50
2018-10-19T14:20:49.986Z,6.57
2018-10-19T14:23:53.062Z,5.43
2018-10-19T14:26:56.167Z,6.87
2018-10-19T14:29:59.262Z,3.80
2018-10-19T14:33:02.441Z,6.17
2018-10-19T14:36:05.469Z,4.67
2018-10-19T14:39:08.690Z,3.33
2018-10-19T14:42:11.946Z,3.33
2018-10-19T14:45:15.642Z,2.90
2018-10-19T14:48:18.619Z,4.23
2018-10-19T14:51:21.829Z,3.20
2018-10-19T14:54:24.887Z,3.70
2018-10-19T14:57:27.968Z,5.73
2018-10-19T15:00:31.061Z,7.07
2018-10-19T15:03:34.158Z,3.87
2018-10-19T15:06:37.650Z,10.57
2018-10-19T15:09:40.894Z,4.07
2018-10-19T15:12:44.110Z,4.47
2018-10-19T15:15:47.190Z,4.90
2018-10-19T15:18:50.607Z,4.47
2018-10-19T15:21:59.894Z,4.50
2018-10-19T15:25:03.897Z,4.43
2018-10-19T15:28:07.604Z,5.20
2018-10-19T15:31:11.081Z,5.03
2018-10-19T15:34:14.342Z,5.67
2018-10-19T15:37:17.824Z,5.73
2018-10-19T15:40:27.085Z,2.63
2018-10-19T15:43:30.434Z,5.00
2018-10-19T15:50:06.402Z,3.63
2018-10-19T15:53:09.562Z,4.17
2018-10-19T15:56:12.662Z,8.40
2018-10-19T15:59:15.773Z,6.77
2018-10-19T16:02:19.023Z,6.87
2018-10-19T16:05:22.122Z,5.03
2018-10-19T16:08:25.203Z,8.40
2018-10-19T16:11:28.370Z,2.63
2018-10-19T16:14:31.442Z,4.30
2018-10-19T16:17:34.643Z,3.03
2018-10-19T16:20:37.665Z,5.70
2018-10-19T16:23:40.761Z,4.00
2018-10-19T16:26:43.838Z,3.23
2018-10-19T16:29:46.934Z,3.20
2018-10-19T16:32:50.001Z,2.83
2018-10-19T16:35:53.343Z,5.37
2018-10-19T16:38:56.429Z,3.23
2018-10-19T16:41:59.531Z,2.40
2018-10-19T16:45:02.631Z,3.43
2018-10-19T16:48:05.804Z,15.03
2018-10-19T16:51:08.862Z,7.80
2018-10-19T16:54:11.964Z,3.97
2018-10-19T16:57:15.043Z,5.33
2018-10-19T17:00:18.034Z,4.63
2018-10-19T17:03:21.138Z,3.87
2018-10-19T17:06:24.189Z,2.73
2018-10-19T17:09:27.269Z,5.60
2018-10-19T17:12:30.381Z,3.90
2018-10-19T17:15:33.434Z,3.10
2018-10-19T17:18:36.525Z,5.03
2018-10-19T17:21:39.567Z,4.83
2018-10-19T17:24:42.639Z,2.23
2018-10-19T17:27:45.726Z,4.07
2018-10-19T17:30:48.863Z,5.40
2018-10-19T17:33:52.047Z,3.70
2018-10-19T17:36:55.055Z,6.03
2018-10-19T17:39:58.093Z,5.37
2018-10-19T17:43:01.231Z,4.17
2018-10-19T17:46:04.238Z,7.07
2018-10-19T17:49:07.449Z,5.63
2018-10-19T17:52:10.494Z,4.20
2018-10-19T17:55:13.544Z,2.77
2018-10-19T17:58:16.617Z,5.50
2018-10-19T18:01:19.685Z,52.83
2018-10-19T18:04:22.761Z,7.70
2018-10-19T18:07:25.847Z,4.23
2018-10-19T18:10:28.973Z,7.37
2018-10-19T18:13:32.097Z,4.63
2018-10-19T18:16:35.446Z,4.67
2018-10-19T18:19:38.536Z,4.57
2018-10-19T18:22:41.710Z,3.17
2018-10-19T18:25:44.742Z,2.60
2018-10-19T18:28:47.990Z,4.37
2018-10-19T18:31:51.093Z,4.93
2018-10-19T18:34:54.215Z,5.43
2018-10-19T18:37:57.289Z,4.03
2018-10-19T18:41:00.433Z,4.50
2018-10-19T18:44:03.596Z,3.30
2018-10-19T18:47:06.646Z,4.60
2018-10-19T18:50:09.868Z,5.53
2018-10-19T18:53:12.962Z,2.80
2018-10-19T18:56:16.100Z,4.67
2018-10-19T18:59:19.027Z,5.70
2018-10-19T19:02:22.121Z,5.57
2018-10-19T19:05:25.164Z,6.00
2018-10-19T19:08:28.244Z,5.53
2018-10-19T19:11:31.297Z,5.93
2018-10-19T19:14:34.505Z,4.23
2018-10-19T19:17:38.166Z,5.03
2018-10-19T19:20:41.250Z,5.60
2018-10-19T19:23:49.683Z,3.83
2018-10-19T19:26:52.766Z,4.07
2018-10-19T19:29:55.882Z,4.53
2018-10-19T19:33:04.406Z,6.03
2018-10-19T19:36:07.510Z,4.00
2018-10-19T19:39:10.810Z,5.13
2018-10-19T19:42:19.474Z,5.07
2018-10-19T19:45:22.558Z,3.27
2018-10-19T19:48:31.203Z,4.73
2018-10-19T19:51:34.286Z,7.10
2018-10-19T19:54:37.338Z,4.53
2018-10-19T19:57:40.418Z,4.93
2018-10-19T20:00:43.530Z,4.57
2018-10-19T20:03:46.669Z,5.73
2018-10-19T20:06:49.769Z,9.27
2018-10-19T20:09:52.873Z,4.70
2018-10-19T20:12:55.956Z,5.30
2018-10-19T20:15:59.007Z,5.53
2018-10-19T20:19:02.107Z,5.50
2018-10-19T20:22:05.359Z,6.33
2018-10-19T20:25:09.614Z,4.90
2018-10-19T20:28:12.689Z,8.27
2018-10-19T20:31:15.774Z,6.50
2018-10-19T20:34:18.910Z,5.13
2018-10-19T20:37:21.975Z,5.67
2018-10-19T20:40:25.114Z,3.40
2018-10-19T20:43:28.177Z,3.40
2018-10-19T20:46:31.257Z,5.63
2018-10-19T20:49:34.350Z,6.07
2018-10-19T20:52:41.516Z,3.73
2018-10-19T20:55:44.606Z,2.93
2018-10-19T20:58:47.767Z,4.87
2018-10-19T21:01:50.835Z,3.80
2018-10-19T21:04:53.981Z,5.07
2018-10-19T21:07:57.028Z,6.27
2018-10-19T21:11:00.208Z,6.73
2018-10-19T21:14:03.304Z,7.27
2018-10-19T21:17:06.398Z,5.70
2018-10-19T21:20:10.712Z,8.43
2018-10-19T21:23:13.851Z,6.23
2018-10-19T21:26:16.815Z,11.37
2018-10-19T21:29:19.912Z,9.47
2018-10-19T21:32:23.023Z,8.37
2018-10-19T21:35:26.118Z,4.50
2018-10-19T21:38:29.244Z,3.03
2018-10-19T21:41:32.319Z,4.27
2018-10-19T21:44:35.408Z,3.47
2018-10-19T21:47:38.474Z,4.87
2018-10-19T21:50:41.554Z,6.13
2018-10-19T21:53:44.654Z,7.53
2018-10-19T21:56:47.730Z,4.03
2018-10-19T21:59:50.818Z,10.40
2018-10-19T22:02:53.894Z,5.83
2018-10-19T22:05:56.983Z,8.27
2018-10-19T22:09:00.046Z,3.70
2018-10-19T22:12:03.102Z,3.67
2018-10-19T22:15:06.653Z,4.57
2018-10-19T22:18:09.750Z,3.53
2018-10-19T22:21:12.825Z,4.07
2018-10-19T22:24:15.890Z,4.40
2018-10-19T22:27:18.986Z,4.07
2018-10-19T22:30:22.038Z,4.17
2018-10-19T22:33:25.114Z,8.03
2018-10-19T22:36:28.197Z,9.67
2018-10-19T22:39:31.274Z,9.33
2018-10-19T22:42:34.380Z,5.67
2018-10-19T22:45:37.442Z,7.97
2018-10-19T22:48:40.532Z,14.23
2018-10-19T22:51:43.639Z,8.13
2018-10-19T22:54:46.699Z,8.63
2018-10-19T22:57:49.785Z,8.77
2018-10-19T23:00:53.183Z,18.53
2018-10-19T23:03:56.302Z,6.63
2018-10-19T23:06:59.547Z,9.27
2018-10-19T23:10:02.621Z,7.40
2018-10-19T23:13:05.720Z,3.53
2018-10-19T23:16:08.807Z,2.83
2018-10-19T23:19:11.969Z,6.27
2018-10-19T23:22:14.990Z,4.57
2018-10-19T23:25:18.090Z,3.93
2018-10-19T23:28:21.209Z,5.40
2018-10-19T23:31:24.458Z,5.50
2018-10-19T23:34:27.461Z,5.47
2018-10-19T23:37:30.575Z,4.37
2018-10-19T23:40:33.633Z,3.83
2018-10-19T23:43:41.179Z,7.73
2018-10-19T23:46:44.228Z,4.20
2018-10-19T23:49:53.834Z,3.43
2018-10-19T23:52:56.938Z,3.87
2018-10-19T23:56:00.050Z,8.07
2018-10-19T23:59:03.164Z,3.80
